createdAt,value
2023-01-07T00:02:17.848Z,16.65
2023-01-07T00:07:40.116Z,18.40
2023-01-07T00:13:02.338Z,18.17
2023-01-07T00:18:24.575Z,17.80
2023-01-07T00:23:49.191Z,17.73
2023-01-07T00:29:13.277Z,18.17
2023-01-07T00:34:35.538Z,18.10
2023-01-07T00:39:57.719Z,19.25
2023-01-07T00:45:21.024Z,19.03
2023-01-07T00:50:46.332Z,18.62
2023-01-07T00:56:09.207Z,18.45
2023-01-07T01:01:32.205Z,19.40
2023-01-07T01:06:54.523Z,19.30
2023-01-07T01:12:17.423Z,19.20
2023-01-07T01:17:40.837Z,18.60
2023-01-07T01:23:03.309Z,16.23
2023-01-07T01:28:25.557Z,16.30
2023-01-07T01:33:48.219Z,13.80
2023-01-07T01:39:10.629Z,16.62
2023-01-07T01:45:00.447Z,15.38
2023-01-07T01:50:42.448Z,15.83
2023-01-07T01:56:09.749Z,16.87
2023-01-07T02:01:32.772Z,15.50
2023-01-07T02:07:09.565Z,15.32
2023-01-07T02:12:54.536Z,15.37
2023-01-07T02:18:45.154Z,16.42
2023-01-07T02:24:53.940Z,16.80
2023-01-07T02:30:33.024Z,15.37
2023-01-07T02:36:06.205Z,16.03
2023-01-07T02:41:36.161Z,16.48
2023-01-07T02:47:33.453Z,15.75
2023-01-07T02:52:56.019Z,15.15
2023-01-07T02:59:00.975Z,16.50
2023-01-07T03:04:50.084Z,15.35
2023-01-07T03:10:39.104Z,15.18
2023-01-07T03:16:09.355Z,15.68
2023-01-07T03:21:36.258Z,16.87
2023-01-07T03:27:11.707Z,16.40
2023-01-07T03:32:50.355Z,16.67
2023-01-07T03:38:14.727Z,16.83
2023-01-07T03:43:38.582Z,15.90
2023-01-07T03:49:00.823Z,15.70
2023-01-07T04:00:02.155Z,15.37
2023-01-07T04:05:24.828Z,14.63
2023-01-07T04:10:47.567Z,15.93
2023-01-07T04:16:10.062Z,15.77
2023-01-07T04:21:32.290Z,16.93
2023-01-07T04:26:54.793Z,17.27
2023-01-07T04:32:17.034Z,16.80
2023-01-07T04:37:39.264Z,15.93
2023-01-07T04:43:01.545Z,15.67
2023-01-07T04:48:23.868Z,16.20
2023-01-07T04:53:46.146Z,15.83
2023-01-07T04:59:08.362Z,15.30
2023-01-07T05:04:30.719Z,16.23
2023-01-07T05:09:53.022Z,17.13
2023-01-07T05:15:16.196Z,16.63
2023-01-07T05:20:38.507Z,18.60
2023-01-07T05:26:01.512Z,19.00
2023-01-07T05:31:24.044Z,19.25
2023-01-07T05:36:46.366Z,20.12
2023-01-07T05:42:08.641Z,21.57
2023-01-07T05:47:31.157Z,20.97
2023-01-07T05:52:53.321Z,17.87
2023-01-07T05:58:15.719Z,15.40
2023-01-07T06:03:38.526Z,16.37
2023-01-07T06:09:00.902Z,15.90
2023-01-07T06:14:23.354Z,15.63
2023-01-07T06:19:45.592Z,14.83
2023-01-07T06:25:07.874Z,14.00
2023-01-07T06:30:30.874Z,15.73
2023-01-07T06:35:53.143Z,15.60
2023-01-07T06:41:15.578Z,15.30
2023-01-07T06:46:38.259Z,14.78
2023-01-07T06:52:00.695Z,14.00
2023-01-07T06:57:22.926Z,13.08
2023-01-07T07:02:46.494Z,13.00
2023-01-07T07:08:09.069Z,13.13
2023-01-07T07:13:31.280Z,13.45
2023-01-07T07:18:53.548Z,13.28
2023-01-07T07:24:17.033Z,12.65
2023-01-07T07:29:39.414Z,12.43
2023-01-07T07:35:02.189Z,13.13
2023-01-07T07:40:25.286Z,13.33
2023-01-07T07:45:49.781Z,14.67
2023-01-07T07:51:22.684Z,14.13
2023-01-07T07:56:45.646Z,15.07
2023-01-07T08:02:08.030Z,16.17
2023-01-07T08:07:32.090Z,15.20
2023-01-07T08:12:57.776Z,16.57
2023-01-07T08:18:24.011Z,15.33
2023-01-07T08:23:46.787Z,15.10
2023-01-07T08:29:09.119Z,16.77
2023-01-07T08:34:31.807Z,16.70
2023-01-07T08:39:54.311Z,16.95
2023-01-07T08:45:18.030Z,16.48
2023-01-07T08:50:41.640Z,17.15
2023-01-07T08:56:07.201Z,16.17
2023-01-07T09:01:32.489Z,16.37
2023-01-07T09:06:55.014Z,15.75
2023-01-07T09:12:18.041Z,17.45
2023-01-07T09:17:40.445Z,17.93
2023-01-07T09:23:02.641Z,14.07
2023-01-07T09:28:25.027Z,14.00
2023-01-07T09:33:47.499Z,11.97
2023-01-07T09:39:10.070Z,11.97
2023-01-07T09:44:52.502Z,13.70
2023-01-07T09:50:20.128Z,16.75
2023-01-07T09:56:11.316Z,16.35
2023-01-07T10:01:49.474Z,19.90
2023-01-07T10:07:39.329Z,18.47
2023-01-07T10:13:33.088Z,20.03
2023-01-07T10:19:14.285Z,19.52
2023-01-07T10:24:46.989Z,19.57
2023-01-07T10:30:24.695Z,19.67
2023-01-07T10:35:49.559Z,18.50
2023-01-07T10:41:16.668Z,19.67
2023-01-07T10:47:07.890Z,16.33
2023-01-07T10:52:57.503Z,26.00
2023-01-07T10:58:24.130Z,13.33
2023-01-07T11:03:48.106Z,18.50
2023-01-07T11:09:11.472Z,19.67
2023-01-07T11:14:37.524Z,14.93
2023-01-07T11:20:02.347Z,14.83
2023-01-07T11:25:42.979Z,15.50
2023-01-07T11:31:11.711Z,14.57
2023-01-07T11:36:45.565Z,15.77
2023-01-07T11:42:39.133Z,15.45
2023-01-07T11:48:15.211Z,15.23
2023-01-07T11:54:05.720Z,17.50
2023-01-07T11:59:36.031Z,17.23
2023-01-07T12:04:58.388Z,18.98
2023-01-07T12:10:32.097Z,19.93
2023-01-07T12:16:14.203Z,20.03
2023-01-07T12:21:50.197Z,21.27
2023-01-07T12:27:31.343Z,22.70
2023-01-07T12:33:31.443Z,22.13
2023-01-07T12:39:03.594Z,21.03
2023-01-07T12:44:34.160Z,22.23
2023-01-07T12:50:04.060Z,23.00
2023-01-07T12:55:39.245Z,24.27
2023-01-07T13:06:57.590Z,24.10
2023-01-07T13:18:27.603Z,21.20
2023-01-07T13:24:09.651Z,20.20
2023-01-07T13:30:11.180Z,19.67
2023-01-07T13:36:06.805Z,20.30
2023-01-07T13:41:40.553Z,20.03
2023-01-07T13:47:05.073Z,25.83
2023-01-07T13:52:41.049Z,25.10
2023-01-07T13:58:03.891Z,27.35
2023-01-07T14:04:04.383Z,30.37
2023-01-07T14:09:31.384Z,31.73
2023-01-07T14:15:10.720Z,28.10
2023-01-07T14:20:41.119Z,27.10
2023-01-07T14:26:25.175Z,30.50
2023-01-07T14:31:51.246Z,28.93
2023-01-07T14:37:30.372Z,32.70
2023-01-07T14:43:00.955Z,35.08
2023-01-07T14:48:39.712Z,35.65
2023-01-07T14:54:22.136Z,38.08
2023-01-07T14:59:55.429Z,41.15
2023-01-07T15:05:34.967Z,42.08
2023-01-07T15:11:17.413Z,33.87
2023-01-07T15:16:41.607Z,43.98
2023-01-07T15:22:12.458Z,43.30
2023-01-07T15:27:56.325Z,42.70
2023-01-07T15:33:39.459Z,42.27
2023-01-07T15:39:08.695Z,40.87
2023-01-07T15:44:49.659Z,38.73
2023-01-07T15:50:39.841Z,36.87
2023-01-07T15:56:15.233Z,35.93
2023-01-07T16:01:39.533Z,34.83
2023-01-07T16:07:02.589Z,66.12
2023-01-07T16:12:43.836Z,35.98
2023-01-07T16:18:16.798Z,38.20
2023-01-07T16:23:46.377Z,38.02
2023-01-07T16:29:19.355Z,39.03
2023-01-07T16:34:49.702Z,38.98
2023-01-07T16:40:12.648Z,41.80
2023-01-07T16:45:51.952Z,41.30
2023-01-07T16:51:35.621Z,42.38
2023-01-07T16:57:03.663Z,41.80
2023-01-07T17:02:48.102Z,42.23
2023-01-07T17:08:18.983Z,41.90
2023-01-07T17:13:46.924Z,51.13
2023-01-07T17:19:31.307Z,39.65
2023-01-07T17:24:58.807Z,38.87
2023-01-07T17:30:25.398Z,36.55
2023-01-07T17:35:54.529Z,36.17
2023-01-07T17:41:36.331Z,27.23
2023-01-07T17:46:59.183Z,33.47
2023-01-07T17:52:22.215Z,34.77
2023-01-07T17:57:45.089Z,41.60
2023-01-07T18:03:10.362Z,36.88
2023-01-07T18:08:34.245Z,39.57
2023-01-07T18:13:56.951Z,43.65
2023-01-07T18:19:19.721Z,60.67
2023-01-07T18:24:42.120Z,40.50
2023-01-07T18:30:04.400Z,39.25
2023-01-07T18:35:27.323Z,37.90
2023-01-07T18:40:49.987Z,38.65
2023-01-07T18:46:17.591Z,38.63
2023-01-07T18:51:39.771Z,38.63
2023-01-07T18:57:02.156Z,40.80
2023-01-07T19:02:28.841Z,39.60
2023-01-07T19:07:53.461Z,39.48
2023-01-07T19:13:15.853Z,43.90
2023-01-07T19:18:40.360Z,49.43
2023-01-07T19:24:04.798Z,45.17
2023-01-07T19:29:27.519Z,47.40
2023-01-07T19:34:51.623Z,44.75
2023-01-07T19:40:17.960Z,44.13
2023-01-07T19:45:40.539Z,46.02
2023-01-07T19:51:07.764Z,43.63
2023-01-07T19:56:31.800Z,41.42
2023-01-07T20:01:55.408Z,42.47
2023-01-07T20:07:18.123Z,41.18
2023-01-07T20:12:40.412Z,42.00
2023-01-07T20:18:02.814Z,44.90
2023-01-07T20:23:26.067Z,45.27
2023-01-07T20:28:48.609Z,50.73
2023-01-07T20:34:12.906Z,51.80
2023-01-07T20:39:36.236Z,51.45
2023-01-07T20:44:58.788Z,50.73
2023-01-07T20:50:21.219Z,49.93
2023-01-07T20:55:43.609Z,49.70
2023-01-07T21:01:07.852Z,49.83
2023-01-07T21:06:32.564Z,49.18
2023-01-07T21:11:54.905Z,47.95
2023-01-07T21:17:17.222Z,48.03
2023-01-07T21:22:39.506Z,48.90
2023-01-07T21:28:03.548Z,48.92
2023-01-07T21:33:25.964Z,48.75
2023-01-07T21:38:50.201Z,50.23
2023-01-07T21:44:13.135Z,50.63
2023-01-07T21:49:36.366Z,52.33
2023-01-07T21:54:59.390Z,52.75
2023-01-07T22:00:23.177Z,49.55
2023-01-07T22:05:45.629Z,51.85
2023-01-07T22:11:08.515Z,50.83
2023-01-07T22:16:32.605Z,52.95
2023-01-07T22:21:54.938Z,50.28
2023-01-07T22:27:17.650Z,50.50
2023-01-07T22:32:39.821Z,49.45
2023-01-07T22:38:02.695Z,49.58
2023-01-07T22:43:31.190Z,46.73
2023-01-07T22:48:54.323Z,48.50
2023-01-07T22:54:18.188Z,46.83
2023-01-07T22:59:40.414Z,47.38
2023-01-07T23:05:02.585Z,46.77
2023-01-07T23:10:25.055Z,44.83
2023-01-07T23:15:48.003Z,45.70
2023-01-07T23:21:11.143Z,43.98
2023-01-07T23:26:34.050Z,40.52
2023-01-07T23:31:56.365Z,38.17
2023-01-07T23:37:18.719Z,37.60
2023-01-07T23:42:41.665Z,36.73
2023-01-07T23:48:06.882Z,34.97
2023-01-07T23:53:29.791Z,35.43
2023-01-07T23:58:52.365Z,34.23
